sensor_id;sensor_type;location;lat;lon;timestamp;P1;durP1;ratioP1;P2;durP2;ratioP2
25627;SDS011;40915;50.826;4.356;2022-11-25T00:02:15;13.23;;;2.88;;
25627;SDS011;40915;50.826;4.356;2022-11-25T00:04:41;15.25;;;3.15;;
25627;SDS011;40915;50.826;4.356;2022-11-25T00:07:06;17.45;;;3.33;;
25627;SDS011;40915;50.826;4.356;2022-11-25T00:09:32;17.95;;;4.30;;
25627;SDS011;40915;50.826;4.356;2022-11-25T00:11:57;13.02;;;2.80;;
25627;SDS011;40915;50.826;4.356;2022-11-25T00:14:23;15.32;;;3.00;;
25627;SDS011;40915;50.826;4.356;2022-11-25T00:16:49;11.80;;;2.90;;
25627;SDS011;40915;50.826;4.356;2022-11-25T00:19:14;19.85;;;3.60;;
25627;SDS011;40915;50.826;4.356;2022-11-25T00:21:41;19.45;;;3.28;;
25627;SDS011;40915;50.826;4.356;2022-11-25T00:24:06;15.32;;;2.70;;
25627;SDS011;40915;50.826;4.356;2022-11-25T00:26:33;13.63;;;3.47;;
25627;SDS011;40915;50.826;4.356;2022-11-25T00:29:01;11.30;;;3.10;;
25627;SDS011;40915;50.826;4.356;2022-11-25T00:31:29;13.07;;;2.50;;
25627;SDS011;40915;50.826;4.356;2022-11-25T00:33:56;18.50;;;3.17;;
25627;SDS011;40915;50.826;4.356;2022-11-25T00:36:23;19.75;;;3.40;;
25627;SDS011;40915;50.826;4.356;2022-11-25T00:38:55;17.98;;;3.85;;
25627;SDS011;40915;50.826;4.356;2022-11-25T00:41:22;11.82;;;2.90;;
25627;SDS011;40915;50.826;4.356;2022-11-25T00:44:09;6.18;;;1.90;;
25627;SDS011;40915;50.826;4.356;2022-11-25T00:46:54;6.38;;;1.50;;
25627;SDS011;40915;50.826;4.356;2022-11-25T00:49:20;9.57;;;1.70;;
25627;SDS011;40915;50.826;4.356;2022-11-25T00:51:46;6.57;;;1.58;;
25627;SDS011;40915;50.826;4.356;2022-11-25T00:54:11;5.70;;;1.33;;
25627;SDS011;40915;50.826;4.356;2022-11-25T00:56:37;4.78;;;0.98;;
25627;SDS011;40915;50.826;4.356;2022-11-25T00:59:03;3.73;;;0.97;;
25627;SDS011;40915;50.826;4.356;2022-11-25T01:01:28;3.87;;;1.30;;
25627;SDS011;40915;50.826;4.356;2022-11-25T01:03:54;3.13;;;1.03;;
25627;SDS011;40915;50.826;4.356;2022-11-25T01:06:19;6.03;;;1.20;;
25627;SDS011;40915;50.826;4.356;2022-11-25T01:08:46;4.07;;;0.80;;
25627;SDS011;40915;50.826;4.356;2022-11-25T01:11:13;4.37;;;1.00;;
25627;SDS011;40915;50.826;4.356;2022-11-25T01:13:40;4.10;;;0.85;;
25627;SDS011;40915;50.826;4.356;2022-11-25T01:16:07;3.63;;;2.90;;
25627;SDS011;40915;50.826;4.356;2022-11-25T01:18:34;3.17;;;1.10;;
25627;SDS011;40915;50.826;4.356;2022-11-25T01:21:10;4.22;;;1.00;;
25627;SDS011;40915;50.826;4.356;2022-11-25T01:23:41;3.43;;;1.00;;
25627;SDS011;40915;50.826;4.356;2022-11-25T01:26:08;3.40;;;1.00;;
25627;SDS011;40915;50.826;4.356;2022-11-25T01:28:37;4.20;;;0.90;;
25627;SDS011;40915;50.826;4.356;2022-11-25T01:33:36;4.90;;;1.13;;
25627;SDS011;40915;50.826;4.356;2022-11-25T01:36:03;4.27;;;1.07;;
25627;SDS011;40915;50.826;4.356;2022-11-25T01:38:30;3.28;;;0.90;;
25627;SDS011;40915;50.826;4.356;2022-11-25T01:40:57;4.32;;;1.00;;
25627;SDS011;40915;50.826;4.356;2022-11-25T01:43:23;5.47;;;1.30;;
25627;SDS011;40915;50.826;4.356;2022-11-25T01:45:50;4.47;;;1.27;;
25627;SDS011;40915;50.826;4.356;2022-11-25T01:48:21;3.57;;;1.00;;
25627;SDS011;40915;50.826;4.356;2022-11-25T01:50:51;2.90;;;1.07;;
25627;SDS011;40915;50.826;4.356;2022-11-25T01:53:18;4.03;;;1.03;;
25627;SDS011;40915;50.826;4.356;2022-11-25T01:55:57;4.40;;;1.00;;
25627;SDS011;40915;50.826;4.356;2022-11-25T01:58:30;3.30;;;0.97;;
25627;SDS011;40915;50.826;4.356;2022-11-25T02:01:02;3.73;;;0.90;;
25627;SDS011;40915;50.826;4.356;2022-11-25T02:03:28;3.67;;;0.90;;
25627;SDS011;40915;50.826;4.356;2022-11-25T02:08:33;2.23;;;0.73;;
25627;SDS011;40915;50.826;4.356;2022-11-25T02:10:59;4.33;;;0.90;;
25627;SDS011;40915;50.826;4.356;2022-11-25T02:13:25;3.33;;;0.80;;
25627;SDS011;40915;50.826;4.356;2022-11-25T02:15:52;4.77;;;0.90;;
25627;SDS011;40915;50.826;4.356;2022-11-25T02:18:18;3.90;;;0.90;;
25627;SDS011;40915;50.826;4.356;2022-11-25T02:20:43;3.03;;;1.10;;
25627;SDS011;40915;50.826;4.356;2022-11-25T02:26:03;3.10;;;0.90;;
25627;SDS011;40915;50.826;4.356;2022-11-25T02:28:30;3.80;;;0.87;;
25627;SDS011;40915;50.826;4.356;2022-11-25T02:30:57;4.37;;;1.10;;
25627;SDS011;40915;50.826;4.356;2022-11-25T02:33:22;2.73;;;0.90;;
25627;SDS011;40915;50.826;4.356;2022-11-25T02:35:55;2.63;;;0.80;;
25627;SDS011;40915;50.826;4.356;2022-11-25T02:41:32;4.43;;;1.00;;
25627;SDS011;40915;50.826;4.356;2022-11-25T02:44:02;2.20;;;0.80;;
25627;SDS011;40915;50.826;4.356;2022-11-25T02:46:28;2.70;;;0.90;;
25627;SDS011;40915;50.826;4.356;2022-11-25T02:48:55;4.20;;;1.00;;
25627;SDS011;40915;50.826;4.356;2022-11-25T02:51:22;3.00;;;0.87;;
25627;SDS011;40915;50.826;4.356;2022-11-25T02:53:49;4.20;;;0.90;;
25627;SDS011;40915;50.826;4.356;2022-11-25T02:56:16;4.83;;;1.00;;
25627;SDS011;40915;50.826;4.356;2022-11-25T02:58:43;3.23;;;0.83;;
25627;SDS011;40915;50.826;4.356;2022-11-25T03:01:08;5.43;;;1.10;;
25627;SDS011;40915;50.826;4.356;2022-11-25T03:03:35;4.93;;;1.10;;
25627;SDS011;40915;50.826;4.356;2022-11-25T03:06:01;5.00;;;1.40;;
25627;SDS011;40915;50.826;4.356;2022-11-25T03:08:27;5.13;;;1.37;;
25627;SDS011;40915;50.826;4.356;2022-11-25T03:10:53;6.20;;;1.50;;
25627;SDS011;40915;50.826;4.356;2022-11-25T03:13:18;6.43;;;1.73;;
25627;SDS011;40915;50.826;4.356;2022-11-25T03:15:44;5.10;;;1.60;;
25627;SDS011;40915;50.826;4.356;2022-11-25T03:18:09;7.93;;;1.60;;
25627;SDS011;40915;50.826;4.356;2022-11-25T03:20:35;4.77;;;1.40;;
25627;SDS011;40915;50.826;4.356;2022-11-25T03:23:02;6.63;;;1.77;;
25627;SDS011;40915;50.826;4.356;2022-11-25T03:25:28;11.70;;;2.20;;
25627;SDS011;40915;50.826;4.356;2022-11-25T03:27:54;5.77;;;1.50;;
25627;SDS011;40915;50.826;4.356;2022-11-25T03:30:21;9.17;;;1.87;;
25627;SDS011;40915;50.826;4.356;2022-11-25T03:32:48;6.07;;;1.57;;
25627;SDS011;40915;50.826;4.356;2022-11-25T03:35:14;11.10;;;2.07;;
25627;SDS011;40915;50.826;4.356;2022-11-25T03:37:40;9.50;;;1.93;;
25627;SDS011;40915;50.826;4.356;2022-11-25T03:40:07;9.37;;;1.90;;
25627;SDS011;40915;50.826;4.356;2022-11-25T03:42:35;8.90;;;2.10;;
25627;SDS011;40915;50.826;4.356;2022-11-25T03:45:01;9.37;;;2.10;;
25627;SDS011;40915;50.826;4.356;2022-11-25T03:47:27;7.67;;;2.03;;
25627;SDS011;40915;50.826;4.356;2022-11-25T03:49:52;8.03;;;2.00;;
25627;SDS011;40915;50.826;4.356;2022-11-25T03:52:18;9.53;;;1.97;;
25627;SDS011;40915;50.826;4.356;2022-11-25T03:54:44;10.50;;;2.20;;
25627;SDS011;40915;50.826;4.356;2022-11-25T03:57:09;9.67;;;2.30;;
25627;SDS011;40915;50.826;4.356;2022-11-25T03:59:35;10.17;;;2.23;;
25627;SDS011;40915;50.826;4.356;2022-11-25T04:02:01;12.77;;;2.33;;
25627;SDS011;40915;50.826;4.356;2022-11-25T04:04:27;8.93;;;2.43;;
25627;SDS011;40915;50.826;4.356;2022-11-25T04:06:53;8.93;;;2.40;;
25627;SDS011;40915;50.826;4.356;2022-11-25T04:09:18;12.03;;;2.83;;
25627;SDS011;40915;50.826;4.356;2022-11-25T04:11:44;12.37;;;2.73;;
25627;SDS011;40915;50.826;4.356;2022-11-25T04:14:29;11.20;;;2.57;;
25627;SDS011;40915;50.826;4.356;2022-11-25T04:16:55;10.83;;;2.30;;
25627;SDS011;40915;50.826;4.356;2022-11-25T04:19:20;9.37;;;2.00;;
25627;SDS011;40915;50.826;4.356;2022-11-25T04:21:46;9.87;;;2.37;;
25627;SDS011;40915;50.826;4.356;2022-11-25T04:24:12;8.67;;;1.93;;
25627;SDS011;40915;50.826;4.356;2022-11-25T04:26:38;11.33;;;2.20;;
25627;SDS011;40915;50.826;4.356;2022-11-25T04:29:03;10.30;;;1.90;;
25627;SDS011;40915;50.826;4.356;2022-11-25T04:31:29;7.50;;;2.10;;
25627;SDS011;40915;50.826;4.356;2022-11-25T04:33:54;7.30;;;2.10;;
25627;SDS011;40915;50.826;4.356;2022-11-25T04:36:20;9.20;;;2.20;;
25627;SDS011;40915;50.826;4.356;2022-11-25T04:38:46;8.13;;;2.23;;
25627;SDS011;40915;50.826;4.356;2022-11-25T04:41:11;11.40;;;2.50;;
25627;SDS011;40915;50.826;4.356;2022-11-25T04:43:37;9.03;;;2.00;;
25627;SDS011;40915;50.826;4.356;2022-11-25T04:46:02;8.73;;;2.37;;
25627;SDS011;40915;50.826;4.356;2022-11-25T04:48:28;7.67;;;1.90;;
25627;SDS011;40915;50.826;4.356;2022-11-25T04:50:54;9.33;;;1.97;;
25627;SDS011;40915;50.826;4.356;2022-11-25T04:53:20;11.73;;;2.40;;
25627;SDS011;40915;50.826;4.356;2022-11-25T04:55:46;7.23;;;1.90;;
25627;SDS011;40915;50.826;4.356;2022-11-25T04:58:12;7.97;;;2.67;;
25627;SDS011;40915;50.826;4.356;2022-11-25T05:00:38;10.30;;;2.37;;
25627;SDS011;40915;50.826;4.356;2022-11-25T05:03:03;8.03;;;2.00;;
25627;SDS011;40915;50.826;4.356;2022-11-25T05:05:30;11.27;;;2.17;;
25627;SDS011;40915;50.826;4.356;2022-11-25T05:07:56;8.93;;;1.87;;
25627;SDS011;40915;50.826;4.356;2022-11-25T05:10:21;11.03;;;2.00;;
25627;SDS011;40915;50.826;4.356;2022-11-25T05:12:47;7.93;;;1.97;;
25627;SDS011;40915;50.826;4.356;2022-11-25T05:15:12;6.70;;;2.40;;
25627;SDS011;40915;50.826;4.356;2022-11-25T05:17:38;10.50;;;1.90;;
25627;SDS011;40915;50.826;4.356;2022-11-25T05:20:04;6.87;;;1.80;;
25627;SDS011;40915;50.826;4.356;2022-11-25T05:22:31;10.80;;;2.50;;
25627;SDS011;40915;50.826;4.356;2022-11-25T05:24:57;11.87;;;2.27;;
25627;SDS011;40915;50.826;4.356;2022-11-25T05:27:24;8.83;;;2.20;;
25627;SDS011;40915;50.826;4.356;2022-11-25T05:29:50;7.10;;;2.10;;
25627;SDS011;40915;50.826;4.356;2022-11-25T05:32:16;9.53;;;2.10;;
25627;SDS011;40915;50.826;4.356;2022-11-25T05:34:42;8.70;;;1.77;;
25627;SDS011;40915;50.826;4.356;2022-11-25T05:37:08;7.53;;;2.47;;
25627;SDS011;40915;50.826;4.356;2022-11-25T05:39:36;7.30;;;2.00;;
25627;SDS011;40915;50.826;4.356;2022-11-25T05:42:02;8.43;;;2.20;;
25627;SDS011;40915;50.826;4.356;2022-11-25T05:44:28;11.63;;;2.30;;
25627;SDS011;40915;50.826;4.356;2022-11-25T05:46:53;7.80;;;2.43;;
25627;SDS011;40915;50.826;4.356;2022-11-25T05:49:19;10.93;;;2.30;;
25627;SDS011;40915;50.826;4.356;2022-11-25T05:51:45;7.97;;;2.13;;
25627;SDS011;40915;50.826;4.356;2022-11-25T05:54:11;9.03;;;2.20;;
25627;SDS011;40915;50.826;4.356;2022-11-25T05:56:37;9.87;;;2.37;;
25627;SDS011;40915;50.826;4.356;2022-11-25T05:59:03;9.93;;;2.23;;
25627;SDS011;40915;50.826;4.356;2022-11-25T06:01:29;11.90;;;2.60;;
25627;SDS011;40915;50.826;4.356;2022-11-25T06:03:58;8.57;;;2.50;;
25627;SDS011;40915;50.826;4.356;2022-11-25T06:06:24;10.53;;;2.20;;
25627;SDS011;40915;50.826;4.356;2022-11-25T06:08:50;10.93;;;2.60;;
25627;SDS011;40915;50.826;4.356;2022-11-25T06:11:16;12.90;;;2.70;;
25627;SDS011;40915;50.826;4.356;2022-11-25T06:13:42;9.17;;;2.40;;
25627;SDS011;40915;50.826;4.356;2022-11-25T06:16:13;12.50;;;2.43;;
25627;SDS011;40915;50.826;4.356;2022-11-25T06:18:40;9.70;;;2.43;;
25627;SDS011;40915;50.826;4.356;2022-11-25T06:21:07;13.20;;;2.73;;
25627;SDS011;40915;50.826;4.356;2022-11-25T06:23:34;10.97;;;2.50;;
25627;SDS011;40915;50.826;4.356;2022-11-25T06:26:07;10.90;;;3.07;;
25627;SDS011;40915;50.826;4.356;2022-11-25T06:28:37;11.17;;;2.73;;
25627;SDS011;40915;50.826;4.356;2022-11-25T06:31:13;11.13;;;2.87;;
25627;SDS011;40915;50.826;4.356;2022-11-25T06:33:41;12.70;;;2.70;;
25627;SDS011;40915;50.826;4.356;2022-11-25T06:36:09;10.67;;;2.93;;
25627;SDS011;40915;50.826;4.356;2022-11-25T06:38:45;14.17;;;3.00;;
25627;SDS011;40915;50.826;4.356;2022-11-25T06:41:12;11.03;;;2.70;;
25627;SDS011;40915;50.826;4.356;2022-11-25T06:43:38;8.80;;;2.57;;
25627;SDS011;40915;50.826;4.356;2022-11-25T06:46:05;14.20;;;3.67;;
25627;SDS011;40915;50.826;4.356;2022-11-25T06:48:32;11.60;;;3.13;;
25627;SDS011;40915;50.826;4.356;2022-11-25T06:50:58;10.80;;;3.13;;
25627;SDS011;40915;50.826;4.356;2022-11-25T06:53:25;11.30;;;2.87;;
25627;SDS011;40915;50.826;4.356;2022-11-25T06:56:01;10.97;;;3.00;;
25627;SDS011;40915;50.826;4.356;2022-11-25T06:58:33;13.57;;;2.80;;
25627;SDS011;40915;50.826;4.356;2022-11-25T07:01:04;10.33;;;2.60;;
25627;SDS011;40915;50.826;4.356;2022-11-25T07:03:41;11.30;;;2.30;;
25627;SDS011;40915;50.826;4.356;2022-11-25T07:06:08;10.60;;;3.33;;
25627;SDS011;40915;50.826;4.356;2022-11-25T07:08:36;14.33;;;3.33;;
25627;SDS011;40915;50.826;4.356;2022-11-25T07:11:05;12.33;;;3.30;;
25627;SDS011;40915;50.826;4.356;2022-11-25T07:13:32;10.60;;;2.70;;
25627;SDS011;40915;50.826;4.356;2022-11-25T07:16:02;17.70;;;3.83;;
25627;SDS011;40915;50.826;4.356;2022-11-25T07:18:32;12.33;;;3.17;;
25627;SDS011;40915;50.826;4.356;2022-11-25T07:21:04;12.97;;;3.50;;
25627;SDS011;40915;50.826;4.356;2022-11-25T07:23:32;8.70;;;2.87;;
25627;SDS011;40915;50.826;4.356;2022-11-25T07:26:04;13.37;;;3.63;;
25627;SDS011;40915;50.826;4.356;2022-11-25T07:28:34;14.63;;;3.17;;
25627;SDS011;40915;50.826;4.356;2022-11-25T07:31:14;13.80;;;3.23;;
25627;SDS011;40915;50.826;4.356;2022-11-25T07:34:09;17.13;;;3.37;;
25627;SDS011;40915;50.826;4.356;2022-11-25T07:36:41;13.70;;;3.17;;
25627;SDS011;40915;50.826;4.356;2022-11-25T07:39:09;11.63;;;3.30;;
25627;SDS011;40915;50.826;4.356;2022-11-25T07:41:36;13.43;;;2.83;;
25627;SDS011;40915;50.826;4.356;2022-11-25T07:44:03;15.00;;;3.30;;
25627;SDS011;40915;50.826;4.356;2022-11-25T07:46:30;10.73;;;3.17;;
25627;SDS011;40915;50.826;4.356;2022-11-25T07:48:58;10.40;;;2.90;;
25627;SDS011;40915;50.826;4.356;2022-11-25T07:51:30;12.27;;;3.47;;
25627;SDS011;40915;50.826;4.356;2022-11-25T07:53:58;9.37;;;3.27;;
25627;SDS011;40915;50.826;4.356;2022-11-25T07:56:25;14.70;;;2.70;;
25627;SDS011;40915;50.826;4.356;2022-11-25T07:58:51;15.30;;;3.80;;
25627;SDS011;40915;50.826;4.356;2022-11-25T08:01:17;10.80;;;3.17;;
25627;SDS011;40915;50.826;4.356;2022-11-25T08:03:43;15.73;;;3.00;;
25627;SDS011;40915;50.826;4.356;2022-11-25T08:06:13;9.20;;;3.17;;
25627;SDS011;40915;50.826;4.356;2022-11-25T08:08:40;13.63;;;3.53;;
25627;SDS011;40915;50.826;4.356;2022-11-25T08:11:08;12.40;;;2.97;;
25627;SDS011;40915;50.826;4.356;2022-11-25T08:13:37;13.37;;;3.43;;
25627;SDS011;40915;50.826;4.356;2022-11-25T08:16:03;20.37;;;3.97;;
25627;SDS011;40915;50.826;4.356;2022-11-25T08:18:29;18.63;;;3.60;;
25627;SDS011;40915;50.826;4.356;2022-11-25T08:21:02;15.37;;;3.53;;
25627;SDS011;40915;50.826;4.356;2022-11-25T08:23:32;14.43;;;3.33;;
25627;SDS011;40915;50.826;4.356;2022-11-25T08:26:41;13.47;;;3.03;;
25627;SDS011;40915;50.826;4.356;2022-11-25T08:28:47;15.93;;;3.50;;
25627;SDS011;40915;50.826;4.356;2022-11-25T08:31:18;16.63;;;3.13;;
25627;SDS011;40915;50.826;4.356;2022-11-25T08:33:45;13.63;;;3.50;;
25627;SDS011;40915;50.826;4.356;2022-11-25T08:36:11;13.77;;;3.60;;
25627;SDS011;40915;50.826;4.356;2022-11-25T08:38:37;12.83;;;3.77;;
25627;SDS011;40915;50.826;4.356;2022-11-25T08:41:08;11.10;;;3.17;;
25627;SDS011;40915;50.826;4.356;2022-11-25T08:43:35;14.20;;;3.73;;
25627;SDS011;40915;50.826;4.356;2022-11-25T08:46:05;9.73;;;3.70;;
25627;SDS011;40915;50.826;4.356;2022-11-25T08:48:32;8.83;;;3.00;;
25627;SDS011;40915;50.826;4.356;2022-11-25T08:50:58;11.80;;;3.20;;
25627;SDS011;40915;50.826;4.356;2022-11-25T08:53:23;11.93;;;3.40;;
25627;SDS011;40915;50.826;4.356;2022-11-25T08:55:49;11.50;;;3.57;;
25627;SDS011;40915;50.826;4.356;2022-11-25T08:58:14;9.17;;;2.90;;
25627;SDS011;40915;50.826;4.356;2022-11-25T09:00:40;13.53;;;3.30;;
25627;SDS011;40915;50.826;4.356;2022-11-25T09:03:08;14.83;;;3.73;;
25627;SDS011;40915;50.826;4.356;2022-11-25T09:05:34;13.80;;;3.40;;
25627;SDS011;40915;50.826;4.356;2022-11-25T09:08:04;12.67;;;3.03;;
25627;SDS011;40915;50.826;4.356;2022-11-25T09:10:31;13.63;;;3.43;;
25627;SDS011;40915;50.826;4.356;2022-11-25T09:12:57;9.20;;;2.70;;
25627;SDS011;40915;50.826;4.356;2022-11-25T09:15:24;8.20;;;2.40;;
25627;SDS011;40915;50.826;4.356;2022-11-25T09:17:56;24.33;;;8.63;;
25627;SDS011;40915;50.826;4.356;2022-11-25T09:20:29;7.93;;;2.23;;
25627;SDS011;40915;50.826;4.356;2022-11-25T09:22:57;11.20;;;2.73;;
25627;SDS011;40915;50.826;4.356;2022-11-25T09:25:24;6.40;;;2.30;;
25627;SDS011;40915;50.826;4.356;2022-11-25T09:27:51;10.20;;;2.47;;
25627;SDS011;40915;50.826;4.356;2022-11-25T09:30:17;6.63;;;2.13;;
25627;SDS011;40915;50.826;4.356;2022-11-25T09:32:43;11.30;;;2.93;;
25627;SDS011;40915;50.826;4.356;2022-11-25T09:35:12;9.73;;;2.57;;
25627;SDS011;40915;50.826;4.356;2022-11-25T09:37:37;11.83;;;3.00;;
25627;SDS011;40915;50.826;4.356;2022-11-25T09:40:04;7.33;;;2.57;;
25627;SDS011;40915;50.826;4.356;2022-11-25T09:42:33;8.87;;;2.47;;
25627;SDS011;40915;50.826;4.356;2022-11-25T09:45:26;11.13;;;3.00;;
25627;SDS011;40915;50.826;4.356;2022-11-25T09:48:36;12.17;;;3.23;;
25627;SDS011;40915;50.826;4.356;2022-11-25T09:51:09;9.27;;;3.20;;
25627;SDS011;40915;50.826;4.356;2022-11-25T09:53:44;10.30;;;3.00;;
25627;SDS011;40915;50.826;4.356;2022-11-25T09:56:33;10.00;;;2.80;;
25627;SDS011;40915;50.826;4.356;2022-11-25T09:59:09;9.87;;;3.20;;
25627;SDS011;40915;50.826;4.356;2022-11-25T10:01:45;8.60;;;2.80;;
25627;SDS011;40915;50.826;4.356;2022-11-25T10:04:19;6.10;;;2.33;;
25627;SDS011;40915;50.826;4.356;2022-11-25T10:06:54;10.63;;;2.77;;
25627;SDS011;40915;50.826;4.356;2022-11-25T10:09:27;8.63;;;2.53;;
25627;SDS011;40915;50.826;4.356;2022-11-25T10:11:55;10.15;;;2.65;;
25627;SDS011;40915;50.826;4.356;2022-11-25T10:14:38;8.50;;;2.83;;
25627;SDS011;40915;50.826;4.356;2022-11-25T10:20:02;9.00;;;2.90;;
25627;SDS011;40915;50.826;4.356;2022-11-25T10:22:38;8.53;;;2.20;;
25627;SDS011;40915;50.826;4.356;2022-11-25T10:25:16;5.07;;;1.93;;
25627;SDS011;40915;50.826;4.356;2022-11-25T10:30:35;8.93;;;2.67;;
25627;SDS011;40915;50.826;4.356;2022-11-25T10:33:18;8.07;;;2.00;;
25627;SDS011;40915;50.826;4.356;2022-11-25T10:35:52;5.03;;;1.43;;
25627;SDS011;40915;50.826;4.356;2022-11-25T10:38:26;6.90;;;1.93;;
25627;SDS011;40915;50.826;4.356;2022-11-25T10:40:59;9.18;;;3.08;;
25627;SDS011;40915;50.826;4.356;2022-11-25T10:43:27;8.05;;;2.60;;
25627;SDS011;40915;50.826;4.356;2022-11-25T10:45:56;10.07;;;2.67;;
25627;SDS011;40915;50.826;4.356;2022-11-25T10:56:44;12.02;;;2.40;;
25627;SDS011;40915;50.826;4.356;2022-11-25T10:59:13;7.95;;;2.40;;
25627;SDS011;40915;50.826;4.356;2022-11-25T11:01:43;9.70;;;2.70;;
25627;SDS011;40915;50.826;4.356;2022-11-25T11:04:10;9.02;;;2.40;;
25627;SDS011;40915;50.826;4.356;2022-11-25T11:06:42;15.40;;;2.88;;
25627;SDS011;40915;50.826;4.356;2022-11-25T11:09:29;8.43;;;3.20;;
25627;SDS011;40915;50.826;4.356;2022-11-25T11:11:57;12.50;;;3.53;;
25627;SDS011;40915;50.826;4.356;2022-11-25T11:14:52;13.32;;;3.17;;
25627;SDS011;40915;50.826;4.356;2022-11-25T11:17:38;10.02;;;2.95;;
25627;SDS011;40915;50.826;4.356;2022-11-25T11:22:36;12.65;;;2.55;;
25627;SDS011;40915;50.826;4.356;2022-11-25T11:27:45;9.20;;;2.55;;
25627;SDS011;40915;50.826;4.356;2022-11-25T11:30:15;11.10;;;2.25;;
25627;SDS011;40915;50.826;4.356;2022-11-25T11:38:45;13.13;;;2.60;;
25627;SDS011;40915;50.826;4.356;2022-11-25T11:41:33;14.85;;;3.58;;
25627;SDS011;40915;50.826;4.356;2022-11-25T11:44:08;11.10;;;2.80;;
25627;SDS011;40915;50.826;4.356;2022-11-25T11:46:48;12.10;;;3.70;;
25627;SDS011;40915;50.826;4.356;2022-11-25T11:49:41;11.05;;;3.00;;
25627;SDS011;40915;50.826;4.356;2022-11-25T11:52:39;12.90;;;3.47;;
25627;SDS011;40915;50.826;4.356;2022-11-25T12:03:53;15.10;;;3.67;;
25627;SDS011;40915;50.826;4.356;2022-11-25T12:06:27;13.80;;;3.45;;
25627;SDS011;40915;50.826;4.356;2022-11-25T12:08:59;14.07;;;2.97;;
25627;SDS011;40915;50.826;4.356;2022-11-25T12:11:35;12.18;;;2.85;;
25627;SDS011;40915;50.826;4.356;2022-11-25T12:16:52;17.77;;;4.10;;
25627;SDS011;40915;50.826;4.356;2022-11-25T12:22:23;17.00;;;3.00;;
25627;SDS011;40915;50.826;4.356;2022-11-25T12:25:44;15.23;;;3.25;;
25627;SDS011;40915;50.826;4.356;2022-11-25T12:30:22;15.35;;;3.95;;
25627;SDS011;40915;50.826;4.356;2022-11-25T12:32:52;14.60;;;3.43;;
25627;SDS011;40915;50.826;4.356;2022-11-25T12:35:56;15.95;;;3.55;;
25627;SDS011;40915;50.826;4.356;2022-11-25T12:43:49;13.20;;;3.30;;
25627;SDS011;40915;50.826;4.356;2022-11-25T12:49:18;13.90;;;3.92;;
25627;SDS011;40915;50.826;4.356;2022-11-25T13:03:26;14.82;;;3.67;;
25627;SDS011;40915;50.826;4.356;2022-11-25T13:08:58;12.43;;;3.10;;
25627;SDS011;40915;50.826;4.356;2022-11-25T13:14:38;16.70;;;4.05;;
25627;SDS011;40915;50.826;4.356;2022-11-25T13:17:24;15.93;;;3.30;;
25627;SDS011;40915;50.826;4.356;2022-11-25T13:23:05;23.90;;;3.20;;
25627;SDS011;40915;50.826;4.356;2022-11-25T13:25:44;14.93;;;3.60;;
25627;SDS011;40915;50.826;4.356;2022-11-25T13:28:28;13.38;;;3.08;;
25627;SDS011;40915;50.826;4.356;2022-11-25T13:31:29;16.13;;;3.72;;
25627;SDS011;40915;50.826;4.356;2022-11-25T13:36:22;17.23;;;3.72;;
25627;SDS011;40915;50.826;4.356;2022-11-25T13:43:50;16.75;;;3.60;;
25627;SDS011;40915;50.826;4.356;2022-11-25T13:49:06;15.70;;;3.67;;
25627;SDS011;40915;50.826;4.356;2022-11-25T13:51:48;14.68;;;3.65;;
25627;SDS011;40915;50.826;4.356;2022-11-25T13:54:15;15.68;;;3.60;;
25627;SDS011;40915;50.826;4.356;2022-11-25T13:56:56;14.48;;;3.40;;
25627;SDS011;40915;50.826;4.356;2022-11-25T13:59:53;12.57;;;3.58;;
25627;SDS011;40915;50.826;4.356;2022-11-25T14:04:58;11.65;;;3.33;;
25627;SDS011;40915;50.826;4.356;2022-11-25T14:07:42;13.98;;;3.58;;
25627;SDS011;40915;50.826;4.356;2022-11-25T14:10:38;13.55;;;3.13;;
25627;SDS011;40915;50.826;4.356;2022-11-25T14:27:00;19.33;;;4.25;;
25627;SDS011;40915;50.826;4.356;2022-11-25T14:31:58;16.83;;;4.20;;
25627;SDS011;40915;50.826;4.356;2022-11-25T14:37:33;12.85;;;3.17;;
25627;SDS011;40915;50.826;4.356;2022-11-25T14:42:51;18.25;;;3.95;;
25627;SDS011;40915;50.826;4.356;2022-11-25T14:45:26;15.93;;;3.58;;
25627;SDS011;40915;50.826;4.356;2022-11-25T14:47:53;14.02;;;3.47;;
25627;SDS011;40915;50.826;4.356;2022-11-25T14:50:19;17.27;;;4.22;;
25627;SDS011;40915;50.826;4.356;2022-11-25T14:52:45;15.85;;;3.78;;
25627;SDS011;40915;50.826;4.356;2022-11-25T14:55:11;15.95;;;4.30;;
25627;SDS011;40915;50.826;4.356;2022-11-25T14:57:47;15.52;;;4.28;;
25627;SDS011;40915;50.826;4.356;2022-11-25T15:00:15;14.32;;;3.80;;
25627;SDS011;40915;50.826;4.356;2022-11-25T15:05:41;20.35;;;3.88;;
25627;SDS011;40915;50.826;4.356;2022-11-25T15:08:12;15.77;;;4.07;;
25627;SDS011;40915;50.826;4.356;2022-11-25T15:10:41;21.65;;;3.83;;
25627;SDS011;40915;50.826;4.356;2022-11-25T15:15:55;12.50;;;3.03;;
25627;SDS011;40915;50.826;4.356;2022-11-25T15:18:37;17.83;;;3.90;;
25627;SDS011;40915;50.826;4.356;2022-11-25T15:21:13;16.63;;;3.75;;
25627;SDS011;40915;50.826;4.356;2022-11-25T15:23:40;18.70;;;3.88;;
25627;SDS011;40915;50.826;4.356;2022-11-25T15:26:39;16.80;;;3.97;;
25627;SDS011;40915;50.826;4.356;2022-11-25T15:29:05;20.70;;;3.75;;
25627;SDS011;40915;50.826;4.356;2022-11-25T15:31:35;22.45;;;4.10;;
25627;SDS011;40915;50.826;4.356;2022-11-25T15:34:06;16.52;;;4.00;;
25627;SDS011;40915;50.826;4.356;2022-11-25T15:36:49;20.73;;;4.05;;
25627;SDS011;40915;50.826;4.356;2022-11-25T15:41:45;13.65;;;3.67;;
25627;SDS011;40915;50.826;4.356;2022-11-25T15:44:30;14.88;;;4.18;;
25627;SDS011;40915;50.826;4.356;2022-11-25T15:46:58;11.88;;;4.05;;
25627;SDS011;40915;50.826;4.356;2022-11-25T15:49:27;21.85;;;4.43;;
25627;SDS011;40915;50.826;4.356;2022-11-25T15:54:27;21.35;;;4.88;;
25627;SDS011;40915;50.826;4.356;2022-11-25T15:57:12;18.35;;;4.07;;
25627;SDS011;40915;50.826;4.356;2022-11-25T16:21:27;25.23;;;5.15;;
25627;SDS011;40915;50.826;4.356;2022-11-25T16:26:35;20.10;;;4.63;;
25627;SDS011;40915;50.826;4.356;2022-11-25T16:29:14;17.95;;;4.20;;
25627;SDS011;40915;50.826;4.356;2022-11-25T16:31:46;20.90;;;5.25;;
25627;SDS011;40915;50.826;4.356;2022-11-25T16:34:16;18.75;;;4.97;;
25627;SDS011;40915;50.826;4.356;2022-11-25T16:36:43;21.83;;;4.95;;
25627;SDS011;40915;50.826;4.356;2022-11-25T16:39:08;20.52;;;4.95;;
25627;SDS011;40915;50.826;4.356;2022-11-25T16:41:34;21.35;;;5.30;;
25627;SDS011;40915;50.826;4.356;2022-11-25T16:44:03;25.25;;;5.25;;
25627;SDS011;40915;50.826;4.356;2022-11-25T16:46:29;22.02;;;4.90;;
25627;SDS011;40915;50.826;4.356;2022-11-25T16:48:55;18.60;;;5.45;;
25627;SDS011;40915;50.826;4.356;2022-11-25T16:51:22;27.00;;;5.43;;
25627;SDS011;40915;50.826;4.356;2022-11-25T16:53:49;17.07;;;4.80;;
25627;SDS011;40915;50.826;4.356;2022-11-25T16:56:17;26.27;;;5.47;;
25627;SDS011;40915;50.826;4.356;2022-11-25T16:58:53;21.92;;;6.78;;
25627;SDS011;40915;50.826;4.356;2022-11-25T17:01:20;25.13;;;5.82;;
25627;SDS011;40915;50.826;4.356;2022-11-25T17:03:49;19.17;;;5.03;;
25627;SDS011;40915;50.826;4.356;2022-11-25T17:06:16;24.50;;;6.27;;
25627;SDS011;40915;50.826;4.356;2022-11-25T17:08:44;20.80;;;5.47;;
25627;SDS011;40915;50.826;4.356;2022-11-25T17:11:12;24.73;;;5.23;;
25627;SDS011;40915;50.826;4.356;2022-11-25T17:13:43;23.27;;;5.93;;
25627;SDS011;40915;50.826;4.356;2022-11-25T17:16:14;24.67;;;5.87;;
25627;SDS011;40915;50.826;4.356;2022-11-25T17:18:42;22.17;;;6.07;;
25627;SDS011;40915;50.826;4.356;2022-11-25T17:21:10;18.77;;;5.67;;
25627;SDS011;40915;50.826;4.356;2022-11-25T17:23:44;26.27;;;6.20;;
25627;SDS011;40915;50.826;4.356;2022-11-25T17:29:06;27.97;;;6.77;;
25627;SDS011;40915;50.826;4.356;2022-11-25T17:31:40;19.70;;;6.23;;
25627;SDS011;40915;50.826;4.356;2022-11-25T17:34:08;20.93;;;6.77;;